Indian Cove, Idaho
Current Conditions -  °F | °C
As of 11:58 AM on Thursday 23 Oct 2014 (Local Time) from KMUO Reporting Station
Broken Clouds Broken Clouds  
Wind Chill: 59°   Ceiling: 15000
Heat Index: 59°   Visibility: 10mi
Dew Point: 39°   Wind: 6mph
Humidity: 48%   Direction: 210°SSW
Pressure: 30.07"   Gusts: NA
Location:  42.9835°N, 115.554°W
Report Text: KMUO 231758Z 21005KT 10SM SCT075 SCT090 BKN150 15/04 A3007 RMK AO2A SLP175 60000 50006
Loading
Personal Weather Stations






























Interactive Weather Map
Tropical Storm Tracking
New forecast layout! Learn more

10-Day Weather Forecast

Advertisements
Track Severe Weather on mobile